Terminal Aerodrome Forecast
Issued by NWS

Home | Current Version | Previous Version | Text Only | Print | Product List | Glossary On
Versions: 1 2 3 4 5 6 7 8 9 10 11 12 13 14 15 16 17 18 19 20 21 22 23 24
000
FTAK31 PAJN 202300
TAFAPG
TAF
PAPG 202340Z 2100/2124 21005KT P6SM -SHRA SCT020 BKN040
     FM210300 VRB03KT P6SM VCSH FEW005 SCT020 BKN070
     FM210700 00000KT 6SM BR SCT005 BKN070
     FM211100 00000KT 1SM BR BKN005
     FM211700 VRB03KT 6SM -RA BR SCT005 SCT020 OVC060
     FM212100 12011KT 6SM -RA BR SCT020 OVC040
      AMD LTD TO CLD VIS AND WIND 2106/2115=

USA.gov is the U.S. government's official web portal to all federal, state and local government web resources and services.